sensor_id;sensor_type;location;lat;lon;timestamp;pressure;altitude;pressure_sealevel;temperature;humidity
72721;BME280;60835;50.974;10.322;2024-03-07T00:00:28;98839.06;;;2.49;100.00
72721;BME280;60835;50.974;10.322;2024-03-07T00:02:55;98857.13;;;2.66;100.00
72721;BME280;60835;50.974;10.322;2024-03-07T00:05:22;98832.44;;;2.43;100.00
72721;BME280;60835;50.974;10.322;2024-03-07T00:07:53;98849.13;;;2.55;100.00
72721;BME280;60835;50.974;10.322;2024-03-07T00:10:20;98842.13;;;2.41;100.00
72721;BME280;60835;50.974;10.322;2024-03-07T00:12:48;98815.28;;;2.39;100.00
72721;BME280;60835;50.974;10.322;2024-03-07T00:15:15;98844.00;;;2.67;100.00
72721;BME280;60835;50.974;10.322;2024-03-07T00:17:42;98837.56;;;2.59;100.00
72721;BME280;60835;50.974;10.322;2024-03-07T00:20:10;98834.75;;;2.62;100.00
72721;BME280;60835;50.974;10.322;2024-03-07T00:22:43;98803.06;;;2.39;100.00
72721;BME280;60835;50.974;10.322;2024-03-07T00:25:10;98805.31;;;2.45;100.00
72721;BME280;60835;50.974;10.322;2024-03-07T00:27:38;98760.56;;;2.23;100.00
72721;BME280;60835;50.974;10.322;2024-03-07T00:30:05;98824.50;;;2.59;100.00
72721;BME280;60835;50.974;10.322;2024-03-07T00:32:35;98810.59;;;2.44;100.00
72721;BME280;60835;50.974;10.322;2024-03-07T00:35:04;98823.59;;;2.45;100.00
72721;BME280;60835;50.974;10.322;2024-03-07T00:37:31;98809.97;;;2.26;100.00
72721;BME280;60835;50.974;10.322;2024-03-07T00:39:58;98789.25;;;2.09;100.00
72721;BME280;60835;50.974;10.322;2024-03-07T00:42:24;98805.22;;;2.19;100.00
72721;BME280;60835;50.974;10.322;2024-03-07T00:44:51;98789.63;;;1.89;100.00
72721;BME280;60835;50.974;10.322;2024-03-07T00:47:18;98752.16;;;1.62;100.00
72721;BME280;60835;50.974;10.322;2024-03-07T00:49:45;98793.34;;;1.71;100.00
72721;BME280;60835;50.974;10.322;2024-03-07T00:52:14;98780.25;;;1.57;100.00
72721;BME280;60835;50.974;10.322;2024-03-07T00:54:41;98781.59;;;1.64;100.00
72721;BME280;60835;50.974;10.322;2024-03-07T00:57:07;98773.56;;;1.53;100.00
72721;BME280;60835;50.974;10.322;2024-03-07T00:59:35;98729.53;;;1.18;100.00
72721;BME280;60835;50.974;10.322;2024-03-07T01:02:02;98750.06;;;1.39;100.00
72721;BME280;60835;50.974;10.322;2024-03-07T01:04:29;98738.38;;;1.16;100.00
72721;BME280;60835;50.974;10.322;2024-03-07T01:06:57;98741.22;;;1.11;100.00
72721;BME280;60835;50.974;10.322;2024-03-07T01:09:28;98683.03;;;0.67;100.00
72721;BME280;60835;50.974;10.322;2024-03-07T01:11:55;98699.75;;;1.08;100.00
72721;BME280;60835;50.974;10.322;2024-03-07T01:14:22;98661.84;;;0.73;100.00
72721;BME280;60835;50.974;10.322;2024-03-07T01:16:50;98674.94;;;0.87;100.00
72721;BME280;60835;50.974;10.322;2024-03-07T01:19:19;98670.41;;;0.75;100.00
72721;BME280;60835;50.974;10.322;2024-03-07T01:21:46;98656.47;;;0.76;100.00
72721;BME280;60835;50.974;10.322;2024-03-07T01:24:13;98474.38;;;-0.15;100.00
72721;BME280;60835;50.974;10.322;2024-03-07T01:26:45;98577.78;;;0.41;100.00
72721;BME280;60835;50.974;10.322;2024-03-07T01:29:12;98597.16;;;0.81;100.00
72721;BME280;60835;50.974;10.322;2024-03-07T01:31:40;98570.63;;;0.75;100.00
72721;BME280;60835;50.974;10.322;2024-03-07T01:34:06;98601.06;;;0.88;100.00
72721;BME280;60835;50.974;10.322;2024-03-07T01:36:33;98570.53;;;0.90;100.00
72721;BME280;60835;50.974;10.322;2024-03-07T01:39:03;98557.94;;;0.54;100.00
72721;BME280;60835;50.974;10.322;2024-03-07T01:41:30;98562.22;;;0.70;100.00
72721;BME280;60835;50.974;10.322;2024-03-07T01:43:57;98452.69;;;0.00;100.00
72721;BME280;60835;50.974;10.322;2024-03-07T01:46:24;98422.09;;;-0.10;100.00
72721;BME280;60835;50.974;10.322;2024-03-07T01:48:51;98549.25;;;0.84;100.00
72721;BME280;60835;50.974;10.322;2024-03-07T01:51:19;98536.31;;;0.96;100.00
72721;BME280;60835;50.974;10.322;2024-03-07T01:53:48;98520.34;;;1.16;100.00
72721;BME280;60835;50.974;10.322;2024-03-07T01:56:16;98519.09;;;1.22;100.00
72721;BME280;60835;50.974;10.322;2024-03-07T01:58:46;98504.84;;;1.28;100.00
72721;BME280;60835;50.974;10.322;2024-03-07T02:01:14;98467.19;;;1.19;100.00
72721;BME280;60835;50.974;10.322;2024-03-07T02:03:42;98473.69;;;1.26;100.00
72721;BME280;60835;50.974;10.322;2024-03-07T02:06:09;98451.28;;;1.09;100.00
72721;BME280;60835;50.974;10.322;2024-03-07T02:08:36;98499.38;;;1.32;100.00
72721;BME280;60835;50.974;10.322;2024-03-07T02:11:03;98472.66;;;1.29;100.00
72721;BME280;60835;50.974;10.322;2024-03-07T02:13:31;98489.44;;;1.51;100.00
72721;BME280;60835;50.974;10.322;2024-03-07T02:15:58;98460.66;;;1.12;100.00
72721;BME280;60835;50.974;10.322;2024-03-07T02:18:27;98519.00;;;1.38;100.00
72721;BME280;60835;50.974;10.322;2024-03-07T02:20:55;98494.59;;;1.39;100.00
72721;BME280;60835;50.974;10.322;2024-03-07T02:23:22;98463.44;;;1.23;100.00
72721;BME280;60835;50.974;10.322;2024-03-07T02:25:49;98463.13;;;1.42;100.00
72721;BME280;60835;50.974;10.322;2024-03-07T02:28:15;98361.50;;;1.01;100.00
72721;BME280;60835;50.974;10.322;2024-03-07T02:30:43;98486.97;;;1.76;100.00
72721;BME280;60835;50.974;10.322;2024-03-07T02:33:12;98449.97;;;1.43;100.00
72721;BME280;60835;50.974;10.322;2024-03-07T02:35:39;98507.53;;;1.81;100.00
72721;BME280;60835;50.974;10.322;2024-03-07T02:38:06;98455.84;;;1.47;100.00
72721;BME280;60835;50.974;10.322;2024-03-07T02:40:33;98499.69;;;1.81;100.00
72721;BME280;60835;50.974;10.322;2024-03-07T02:43:00;98500.50;;;1.69;100.00
72721;BME280;60835;50.974;10.322;2024-03-07T02:45:31;98448.88;;;1.47;100.00
72721;BME280;60835;50.974;10.322;2024-03-07T02:47:58;98495.22;;;1.83;100.00
72721;BME280;60835;50.974;10.322;2024-03-07T02:50:25;98511.91;;;1.80;100.00
72721;BME280;60835;50.974;10.322;2024-03-07T02:52:52;98511.22;;;1.91;100.00
72721;BME280;60835;50.974;10.322;2024-03-07T02:55:19;98509.78;;;2.00;100.00
72721;BME280;60835;50.974;10.322;2024-03-07T02:57:47;98511.28;;;1.77;100.00
72721;BME280;60835;50.974;10.322;2024-03-07T03:00:14;98507.16;;;1.87;100.00
72721;BME280;60835;50.974;10.322;2024-03-07T03:02:48;98474.97;;;1.74;100.00
72721;BME280;60835;50.974;10.322;2024-03-07T03:05:15;98500.72;;;2.05;100.00
72721;BME280;60835;50.974;10.322;2024-03-07T03:07:43;98508.75;;;2.02;100.00
72721;BME280;60835;50.974;10.322;2024-03-07T03:10:24;98500.06;;;1.89;100.00
72721;BME280;60835;50.974;10.322;2024-03-07T03:12:56;98494.88;;;2.02;100.00
72721;BME280;60835;50.974;10.322;2024-03-07T03:15:28;98492.16;;;1.91;100.00
72721;BME280;60835;50.974;10.322;2024-03-07T03:17:57;98508.72;;;1.90;100.00
72721;BME280;60835;50.974;10.322;2024-03-07T03:20:28;98513.09;;;1.89;100.00
72721;BME280;60835;50.974;10.322;2024-03-07T03:23:02;98444.25;;;1.65;100.00
72721;BME280;60835;50.974;10.322;2024-03-07T03:25:46;98508.75;;;2.02;100.00
72721;BME280;60835;50.974;10.322;2024-03-07T03:28:15;98486.44;;;2.11;100.00
72721;BME280;60835;50.974;10.322;2024-03-07T03:30:43;98490.78;;;2.24;100.00
72721;BME280;60835;50.974;10.322;2024-03-07T03:33:10;98508.31;;;2.35;100.00
72721;BME280;60835;50.974;10.322;2024-03-07T03:35:38;98511.34;;;2.41;100.00
72721;BME280;60835;50.974;10.322;2024-03-07T03:38:06;98517.63;;;2.39;100.00
72721;BME280;60835;50.974;10.322;2024-03-07T03:40:34;98518.78;;;2.47;100.00
72721;BME280;60835;50.974;10.322;2024-03-07T03:43:01;98540.13;;;2.67;100.00
72721;BME280;60835;50.974;10.322;2024-03-07T03:45:28;98496.00;;;2.37;100.00
72721;BME280;60835;50.974;10.322;2024-03-07T03:47:55;98532.69;;;2.61;100.00
72721;BME280;60835;50.974;10.322;2024-03-07T03:50:22;98532.81;;;2.72;100.00
72721;BME280;60835;50.974;10.322;2024-03-07T03:52:52;98566.06;;;2.82;100.00
72721;BME280;60835;50.974;10.322;2024-03-07T03:55:19;98555.28;;;2.74;100.00
72721;BME280;60835;50.974;10.322;2024-03-07T03:57:47;98573.50;;;2.88;100.00
72721;BME280;60835;50.974;10.322;2024-03-07T04:00:16;98546.09;;;2.81;100.00
72721;BME280;60835;50.974;10.322;2024-03-07T04:02:45;98575.69;;;2.94;100.00
72721;BME280;60835;50.974;10.322;2024-03-07T04:05:19;98571.50;;;2.92;100.00
72721;BME280;60835;50.974;10.322;2024-03-07T04:07:47;98551.84;;;2.86;100.00
72721;BME280;60835;50.974;10.322;2024-03-07T04:10:16;98563.25;;;2.85;100.00
72721;BME280;60835;50.974;10.322;2024-03-07T04:12:44;98523.00;;;2.88;100.00
72721;BME280;60835;50.974;10.322;2024-03-07T04:15:13;98567.13;;;3.05;100.00
72721;BME280;60835;50.974;10.322;2024-03-07T04:17:45;98543.19;;;2.86;100.00
72721;BME280;60835;50.974;10.322;2024-03-07T04:20:14;98583.31;;;2.97;100.00
72721;BME280;60835;50.974;10.322;2024-03-07T04:22:45;98589.81;;;2.53;100.00
72721;BME280;60835;50.974;10.322;2024-03-07T04:25:12;98573.13;;;2.55;100.00
72721;BME280;60835;50.974;10.322;2024-03-07T04:27:39;98560.19;;;2.66;100.00
72721;BME280;60835;50.974;10.322;2024-03-07T04:30:07;98514.53;;;2.72;100.00
72721;BME280;60835;50.974;10.322;2024-03-07T04:32:37;98553.41;;;2.89;100.00
72721;BME280;60835;50.974;10.322;2024-03-07T04:35:05;98547.88;;;3.06;100.00
72721;BME280;60835;50.974;10.322;2024-03-07T04:37:34;98425.00;;;2.44;100.00
72721;BME280;60835;50.974;10.322;2024-03-07T04:40:07;98558.34;;;2.93;100.00
72721;BME280;60835;50.974;10.322;2024-03-07T04:42:53;98549.75;;;2.91;100.00
72721;BME280;60835;50.974;10.322;2024-03-07T04:45:20;98546.84;;;2.96;100.00
72721;BME280;60835;50.974;10.322;2024-03-07T04:47:48;98551.75;;;3.13;100.00
72721;BME280;60835;50.974;10.322;2024-03-07T04:50:15;98539.94;;;3.07;100.00
72721;BME280;60835;50.974;10.322;2024-03-07T04:52:46;98539.63;;;2.99;100.00
72721;BME280;60835;50.974;10.322;2024-03-07T04:55:15;98541.41;;;2.99;100.00
72721;BME280;60835;50.974;10.322;2024-03-07T04:57:41;98572.78;;;2.99;100.00
72721;BME280;60835;50.974;10.322;2024-03-07T05:00:10;98469.56;;;2.29;100.00
72721;BME280;60835;50.974;10.322;2024-03-07T05:02:48;98572.78;;;2.99;100.00
72721;BME280;60835;50.974;10.322;2024-03-07T05:05:19;98570.56;;;2.93;100.00
72721;BME280;60835;50.974;10.322;2024-03-07T05:07:50;98553.94;;;2.94;100.00
72721;BME280;60835;50.974;10.322;2024-03-07T05:10:18;98559.47;;;3.27;100.00
72721;BME280;60835;50.974;10.322;2024-03-07T05:12:44;98567.31;;;3.27;100.00
72721;BME280;60835;50.974;10.322;2024-03-07T05:15:11;98437.97;;;2.59;100.00
72721;BME280;60835;50.974;10.322;2024-03-07T05:17:38;98467.72;;;2.43;100.00
72721;BME280;60835;50.974;10.322;2024-03-07T05:20:06;98572.25;;;3.19;100.00
72721;BME280;60835;50.974;10.322;2024-03-07T05:22:37;98526.25;;;2.79;100.00
72721;BME280;60835;50.974;10.322;2024-03-07T05:25:19;98538.56;;;3.02;100.00
72721;BME280;60835;50.974;10.322;2024-03-07T05:27:46;98527.09;;;3.17;100.00
72721;BME280;60835;50.974;10.322;2024-03-07T05:30:13;98488.81;;;3.16;100.00
72721;BME280;60835;50.974;10.322;2024-03-07T05:32:42;98529.88;;;3.27;100.00
72721;BME280;60835;50.974;10.322;2024-03-07T05:35:09;98492.72;;;3.34;100.00
72721;BME280;60835;50.974;10.322;2024-03-07T05:37:38;98500.69;;;3.33;100.00
72721;BME280;60835;50.974;10.322;2024-03-07T05:40:08;98469.63;;;3.41;100.00
72721;BME280;60835;50.974;10.322;2024-03-07T05:42:35;98443.50;;;3.28;100.00
72721;BME280;60835;50.974;10.322;2024-03-07T05:45:02;98433.31;;;3.36;100.00
72721;BME280;60835;50.974;10.322;2024-03-07T05:47:29;98428.63;;;3.41;100.00
72721;BME280;60835;50.974;10.322;2024-03-07T05:49:55;98389.38;;;3.05;100.00
72721;BME280;60835;50.974;10.322;2024-03-07T05:52:22;98359.00;;;3.04;100.00
72721;BME280;60835;50.974;10.322;2024-03-07T05:54:48;98319.78;;;3.04;100.00
72721;BME280;60835;50.974;10.322;2024-03-07T05:57:15;98362.91;;;3.22;100.00
72721;BME280;60835;50.974;10.322;2024-03-07T05:59:42;98326.38;;;3.21;100.00
72721;BME280;60835;50.974;10.322;2024-03-07T06:02:09;98323.97;;;3.30;100.00
72721;BME280;60835;50.974;10.322;2024-03-07T06:04:35;98282.69;;;3.23;100.00
72721;BME280;60835;50.974;10.322;2024-03-07T06:07:02;98320.94;;;3.47;100.00
72721;BME280;60835;50.974;10.322;2024-03-07T06:09:30;98289.19;;;3.17;100.00
72721;BME280;60835;50.974;10.322;2024-03-07T06:11:56;98294.22;;;3.20;100.00
72721;BME280;60835;50.974;10.322;2024-03-07T06:14:26;98300.22;;;3.10;100.00
72721;BME280;60835;50.974;10.322;2024-03-07T06:16:53;98279.94;;;3.24;100.00
72721;BME280;60835;50.974;10.322;2024-03-07T06:19:19;98221.81;;;2.86;100.00
72721;BME280;60835;50.974;10.322;2024-03-07T06:21:46;98246.13;;;3.10;100.00
72721;BME280;60835;50.974;10.322;2024-03-07T06:24:14;98196.69;;;2.96;100.00
72721;BME280;60835;50.974;10.322;2024-03-07T06:26:42;98226.38;;;3.30;100.00
72721;BME280;60835;50.974;10.322;2024-03-07T06:29:14;98204.19;;;3.35;100.00
72721;BME280;60835;50.974;10.322;2024-03-07T06:31:43;98198.38;;;3.43;100.00
72721;BME280;60835;50.974;10.322;2024-03-07T06:34:09;98176.56;;;3.31;100.00
72721;BME280;60835;50.974;10.322;2024-03-07T06:36:36;98160.75;;;3.22;100.00
72721;BME280;60835;50.974;10.322;2024-03-07T06:39:03;98171.22;;;3.22;100.00
72721;BME280;60835;50.974;10.322;2024-03-07T06:41:35;98113.09;;;3.07;100.00
72721;BME280;60835;50.974;10.322;2024-03-07T06:44:02;98091.50;;;3.27;100.00
72721;BME280;60835;50.974;10.322;2024-03-07T06:46:29;98054.91;;;3.27;100.00
72721;BME280;60835;50.974;10.322;2024-03-07T06:48:57;98052.53;;;3.24;100.00
72721;BME280;60835;50.974;10.322;2024-03-07T06:51:24;98041.13;;;3.25;100.00
72721;BME280;60835;50.974;10.322;2024-03-07T06:53:53;98034.47;;;3.43;100.00
72721;BME280;60835;50.974;10.322;2024-03-07T06:56:20;97896.91;;;2.76;100.00
72721;BME280;60835;50.974;10.322;2024-03-07T06:58:48;97993.78;;;3.50;100.00
72721;BME280;60835;50.974;10.322;2024-03-07T07:01:15;97982.41;;;3.40;100.00
72721;BME280;60835;50.974;10.322;2024-03-07T07:03:43;97972.63;;;3.53;100.00
72721;BME280;60835;50.974;10.322;2024-03-07T07:06:15;97949.63;;;3.25;100.00
72721;BME280;60835;50.974;10.322;2024-03-07T07:08:42;97960.03;;;3.58;100.00
72721;BME280;60835;50.974;10.322;2024-03-07T07:11:14;97920.81;;;3.47;100.00
72721;BME280;60835;50.974;10.322;2024-03-07T07:13:41;97938.81;;;3.73;100.00
72721;BME280;60835;50.974;10.322;2024-03-07T07:16:08;97918.38;;;3.66;100.00
72721;BME280;60835;50.974;10.322;2024-03-07T07:18:36;97916.56;;;3.78;100.00
72721;BME280;60835;50.974;10.322;2024-03-07T07:21:03;97890.66;;;3.75;100.00
72721;BME280;60835;50.974;10.322;2024-03-07T07:23:31;97874.56;;;3.80;100.00
72721;BME280;60835;50.974;10.322;2024-03-07T07:25:57;97858.38;;;3.86;100.00
72721;BME280;60835;50.974;10.322;2024-03-07T07:28:24;97882.81;;;3.96;100.00
72721;BME280;60835;50.974;10.322;2024-03-07T07:30:52;97875.72;;;3.87;100.00
72721;BME280;60835;50.974;10.322;2024-03-07T07:33:18;97876.13;;;4.03;100.00
72721;BME280;60835;50.974;10.322;2024-03-07T07:35:46;97864.19;;;4.10;100.00
72721;BME280;60835;50.974;10.322;2024-03-07T07:38:12;97871.06;;;3.90;100.00
72721;BME280;60835;50.974;10.322;2024-03-07T07:40:42;97849.75;;;3.74;100.00
72721;BME280;60835;50.974;10.322;2024-03-07T07:43:09;97851.13;;;4.10;100.00
72721;BME280;60835;50.974;10.322;2024-03-07T07:45:51;97817.41;;;3.96;100.00
72721;BME280;60835;50.974;10.322;2024-03-07T07:48:18;97827.81;;;4.07;100.00
72721;BME280;60835;50.974;10.322;2024-03-07T07:50:49;97798.75;;;4.10;100.00
72721;BME280;60835;50.974;10.322;2024-03-07T07:53:19;97831.75;;;4.22;100.00
72721;BME280;60835;50.974;10.322;2024-03-07T07:55:46;97816.69;;;4.14;100.00
72721;BME280;60835;50.974;10.322;2024-03-07T07:58:13;97817.78;;;4.12;100.00
72721;BME280;60835;50.974;10.322;2024-03-07T08:00:39;97834.13;;;3.84;100.00
72721;BME280;60835;50.974;10.322;2024-03-07T08:03:10;97828.38;;;3.90;100.00
72721;BME280;60835;50.974;10.322;2024-03-07T08:05:37;97828.91;;;3.84;100.00
72721;BME280;60835;50.974;10.322;2024-03-07T08:08:06;97848.66;;;3.77;100.00
72721;BME280;60835;50.974;10.322;2024-03-07T08:10:35;97807.19;;;3.93;100.00
72721;BME280;60835;50.974;10.322;2024-03-07T08:13:03;97800.66;;;4.08;100.00
72721;BME280;60835;50.974;10.322;2024-03-07T08:15:32;97776.06;;;4.20;100.00
72721;BME280;60835;50.974;10.322;2024-03-07T08:17:59;97750.19;;;3.96;100.00
72721;BME280;60835;50.974;10.322;2024-03-07T08:20:27;97725.59;;;3.78;100.00
72721;BME280;60835;50.974;10.322;2024-03-07T08:22:55;97782.00;;;4.22;100.00
72721;BME280;60835;50.974;10.322;2024-03-07T08:25:24;97766.56;;;4.19;100.00
72721;BME280;60835;50.974;10.322;2024-03-07T08:27:56;97756.09;;;4.19;100.00
72721;BME280;60835;50.974;10.322;2024-03-07T08:30:24;97775.84;;;4.32;100.00
72721;BME280;60835;50.974;10.322;2024-03-07T08:32:55;97753.38;;;4.00;100.00
72721;BME280;60835;50.974;10.322;2024-03-07T08:35:23;97750.59;;;3.92;100.00
72721;BME280;60835;50.974;10.322;2024-03-07T08:37:54;97757.53;;;4.42;100.00
72721;BME280;60835;50.974;10.322;2024-03-07T08:40:23;97755.66;;;4.54;100.00
72721;BME280;60835;50.974;10.322;2024-03-07T08:42:55;97763.34;;;4.36;100.00
72721;BME280;60835;50.974;10.322;2024-03-07T08:45:24;97720.25;;;3.89;100.00
72721;BME280;60835;50.974;10.322;2024-03-07T08:47:53;97741.56;;;4.45;100.00
72721;BME280;60835;50.974;10.322;2024-03-07T08:50:25;97742.97;;;4.49;100.00
72721;BME280;60835;50.974;10.322;2024-03-07T08:52:53;97745.16;;;4.44;100.00
72721;BME280;60835;50.974;10.322;2024-03-07T08:55:24;97722.81;;;4.40;100.00
72721;BME280;60835;50.974;10.322;2024-03-07T08:57:53;97709.88;;;4.39;100.00
72721;BME280;60835;50.974;10.322;2024-03-07T09:00:20;97663.56;;;4.39;100.00
72721;BME280;60835;50.974;10.322;2024-03-07T09:02:56;97697.25;;;4.72;100.00
72721;BME280;60835;50.974;10.322;2024-03-07T09:05:30;97709.09;;;4.57;100.00
72721;BME280;60835;50.974;10.322;2024-03-07T09:08:01;97692.06;;;4.42;100.00
72721;BME280;60835;50.974;10.322;2024-03-07T09:10:28;97693.38;;;4.57;100.00
72721;BME280;60835;50.974;10.322;2024-03-07T09:12:57;97700.56;;;4.74;100.00
72721;BME280;60835;50.974;10.322;2024-03-07T09:15:25;97684.72;;;4.85;100.00
72721;BME280;60835;50.974;10.322;2024-03-07T09:17:52;97683.19;;;4.73;100.00
72721;BME280;60835;50.974;10.322;2024-03-07T09:20:20;97702.78;;;4.88;100.00
72721;BME280;60835;50.974;10.322;2024-03-07T09:22:48;97698.09;;;5.21;100.00
72721;BME280;60835;50.974;10.322;2024-03-07T09:25:16;97707.22;;;5.26;100.00
72721;BME280;60835;50.974;10.322;2024-03-07T09:27:44;97714.50;;;5.32;100.00
72721;BME280;60835;50.974;10.322;2024-03-07T09:30:11;97709.25;;;5.61;100.00
72721;BME280;60835;50.974;10.322;2024-03-07T09:32:40;97704.13;;;5.69;100.00
72721;BME280;60835;50.974;10.322;2024-03-07T09:35:08;97687.56;;;5.69;100.00
72721;BME280;60835;50.974;10.322;2024-03-07T09:37:40;97737.50;;;6.05;100.00
72721;BME280;60835;50.974;10.322;2024-03-07T09:40:08;97798.84;;;6.04;100.00
72721;BME280;60835;50.974;10.322;2024-03-07T09:42:49;97813.72;;;6.23;100.00
72721;BME280;60835;50.974;10.322;2024-03-07T09:45:19;97847.91;;;6.13;100.00
72721;BME280;60835;50.974;10.322;2024-03-07T09:47:48;97898.75;;;6.32;100.00
72721;BME280;60835;50.974;10.322;2024-03-07T09:50:18;97969.53;;;6.04;100.00
72721;BME280;60835;50.974;10.322;2024-03-07T09:52:52;98029.66;;;6.07;100.00
72721;BME280;60835;50.974;10.322;2024-03-07T09:55:21;98091.00;;;6.06;100.00
72721;BME280;60835;50.974;10.322;2024-03-07T09:57:53;98109.78;;;5.92;100.00
72721;BME280;60835;50.974;10.322;2024-03-07T10:00:20;98162.88;;;6.05;100.00
72721;BME280;60835;50.974;10.322;2024-03-07T10:03:01;98205.50;;;6.19;100.00
72721;BME280;60835;50.974;10.322;2024-03-07T10:05:30;98216.94;;;6.48;100.00
72721;BME280;60835;50.974;10.322;2024-03-07T10:07:58;98205.25;;;6.22;100.00
72721;BME280;60835;50.974;10.322;2024-03-07T10:10:25;98233.22;;;6.91;100.00
72721;BME280;60835;50.974;10.322;2024-03-07T10:12:53;98318.63;;;6.87;100.00
72721;BME280;60835;50.974;10.322;2024-03-07T10:15:20;98349.84;;;6.71;100.00
72721;BME280;60835;50.974;10.322;2024-03-07T10:17:48;98384.66;;;6.63;100.00
72721;BME280;60835;50.974;10.322;2024-03-07T10:20:19;98467.56;;;6.47;100.00
72721;BME280;60835;50.974;10.322;2024-03-07T10:22:50;98498.19;;;6.37;100.00
72721;BME280;60835;50.974;10.322;2024-03-07T10:25:18;98541.91;;;6.38;100.00
72721;BME280;60835;50.974;10.322;2024-03-07T10:27:46;98542.78;;;6.59;100.00
72721;BME280;60835;50.974;10.322;2024-03-07T10:30:16;98559.50;;;6.99;100.00
72721;BME280;60835;50.974;10.322;2024-03-07T10:32:51;98553.13;;;6.40;100.00
72721;BME280;60835;50.974;10.322;2024-03-07T10:35:21;98585.13;;;6.45;100.00
72721;BME280;60835;50.974;10.322;2024-03-07T10:37:50;98630.06;;;6.31;100.00
72721;BME280;60835;50.974;10.322;2024-03-07T10:40:17;98663.75;;;6.37;100.00
72721;BME280;60835;50.974;10.322;2024-03-07T10:42:48;98677.13;;;6.34;100.00
72721;BME280;60835;50.974;10.322;2024-03-07T10:45:19;98714.38;;;6.50;100.00
72721;BME280;60835;50.974;10.322;2024-03-07T10:47:53;98731.31;;;6.57;100.00
72721;BME280;60835;50.974;10.322;2024-03-07T10:52:58;98634.66;;;6.49;100.00
72721;BME280;60835;50.974;10.322;2024-03-07T10:55:45;98764.13;;;7.27;100.00
72721;BME280;60835;50.974;10.322;2024-03-07T11:00:56;98772.94;;;6.95;100.00
72721;BME280;60835;50.974;10.322;2024-03-07T11:03:25;98783.16;;;6.88;100.00
72721;BME280;60835;50.974;10.322;2024-03-07T11:05:54;98810.63;;;6.73;100.00
72721;BME280;60835;50.974;10.322;2024-03-07T11:08:23;98787.72;;;6.75;100.00
72721;BME280;60835;50.974;10.322;2024-03-07T11:10:53;98813.47;;;7.03;100.00
72721;BME280;60835;50.974;10.322;2024-03-07T11:13:21;98806.13;;;6.64;100.00
72721;BME280;60835;50.974;10.322;2024-03-07T11:15:48;98800.38;;;6.48;100.00
72721;BME280;60835;50.974;10.322;2024-03-07T11:18:18;98768.72;;;6.60;100.00
72721;BME280;60835;50.974;10.322;2024-03-07T11:20:45;98715.63;;;7.62;100.00
72721;BME280;60835;50.974;10.322;2024-03-07T11:26:03;98425.38;;;8.83;100.00
72721;BME280;60835;50.974;10.322;2024-03-07T11:28:42;98617.81;;;9.13;100.00
72721;BME280;60835;50.974;10.322;2024-03-07T11:31:12;98725.19;;;9.22;100.00
72721;BME280;60835;50.974;10.322;2024-03-07T11:33:41;98779.13;;;8.30;100.00
72721;BME280;60835;50.974;10.322;2024-03-07T11:36:11;98690.91;;;8.04;100.00
72721;BME280;60835;50.974;10.322;2024-03-07T11:38:47;98558.72;;;7.59;100.00
72721;BME280;60835;50.974;10.322;2024-03-07T11:41:18;98480.66;;;7.88;100.00
72721;BME280;60835;50.974;10.322;2024-03-07T11:43:46;98457.84;;;7.09;100.00
72721;BME280;60835;50.974;10.322;2024-03-07T11:46:13;98463.28;;;7.27;100.00
72721;BME280;60835;50.974;10.322;2024-03-07T11:48:43;98450.81;;;7.19;100.00
72721;BME280;60835;50.974;10.322;2024-03-07T11:51:14;98492.81;;;7.00;100.00
72721;BME280;60835;50.974;10.322;2024-03-07T11:53:44;98505.38;;;6.76;100.00
72721;BME280;60835;50.974;10.322;2024-03-07T11:56:16;98487.34;;;6.92;100.00
72721;BME280;60835;50.974;10.322;2024-03-07T11:58:46;98502.94;;;6.84;100.00
72721;BME280;60835;50.974;10.322;2024-03-07T12:01:21;98472.31;;;6.73;100.00
72721;BME280;60835;50.974;10.322;2024-03-07T12:03:52;98493.84;;;7.18;100.00
72721;BME280;60835;50.974;10.322;2024-03-07T12:06:22;98505.03;;;7.11;100.00
72721;BME280;60835;50.974;10.322;2024-03-07T12:08:49;98484.03;;;7.20;100.00
72721;BME280;60835;50.974;10.322;2024-03-07T12:11:16;98472.78;;;9.21;100.00
72721;BME280;60835;50.974;10.322;2024-03-07T12:13:44;98610.84;;;8.35;100.00
72721;BME280;60835;50.974;10.322;2024-03-07T12:16:16;98686.13;;;8.68;100.00
72721;BME280;60835;50.974;10.322;2024-03-07T12:18:43;98827.53;;;8.29;100.00
72721;BME280;60835;50.974;10.322;2024-03-07T12:21:10;98818.63;;;8.91;100.00
72721;BME280;60835;50.974;10.322;2024-03-07T12:23:39;99114.91;;;8.82;100.00
72721;BME280;60835;50.974;10.322;2024-03-07T12:26:07;99332.84;;;8.84;100.00
72721;BME280;60835;50.974;10.322;2024-03-07T12:28:34;99376.22;;;7.90;100.00
72721;BME280;60835;50.974;10.322;2024-03-07T12:31:02;99371.47;;;8.41;100.00
72721;BME280;60835;50.974;10.322;2024-03-07T12:33:30;99356.25;;;7.64;100.00
72721;BME280;60835;50.974;10.322;2024-03-07T12:36:02;99331.25;;;8.15;100.00
72721;BME280;60835;50.974;10.322;2024-03-07T12:38:33;99392.44;;;9.31;100.00
72721;BME280;60835;50.974;10.322;2024-03-07T12:41:11;99480.66;;;9.82;100.00
72721;BME280;60835;50.974;10.322;2024-03-07T12:43:43;99570.78;;;9.91;100.00
72721;BME280;60835;50.974;10.322;2024-03-07T12:46:13;99587.44;;;9.02;100.00
72721;BME280;60835;50.974;10.322;2024-03-07T12:48:43;99601.66;;;9.24;100.00
72721;BME280;60835;50.974;10.322;2024-03-07T12:51:14;99635.38;;;10.09;100.00
72721;BME280;60835;50.974;10.322;2024-03-07T12:53:46;99632.28;;;9.59;100.00
72721;BME280;60835;50.974;10.322;2024-03-07T12:56:14;99639.72;;;10.10;100.00
72721;BME280;60835;50.974;10.322;2024-03-07T12:58:47;99651.53;;;8.81;100.00
72721;BME280;60835;50.974;10.322;2024-03-07T13:01:24;99613.03;;;9.24;100.00
72721;BME280;60835;50.974;10.322;2024-03-07T13:03:51;99676.16;;;8.45;100.00
72721;BME280;60835;50.974;10.322;2024-03-07T13:06:17;99599.06;;;10.44;100.00